Astrakhan', Russia
Current Conditions -  °F | °C
As of 6:30 PM on Saturday 25 Oct 2014 (Local Time) from URWA Reporting Station
Clear Clear  
Wind Chill: 20°   Ceiling: Unl
Heat Index: 28°   Visibility: 6mi
Dew Point: 14°   Wind: 9mph
Humidity: 55%   Direction: 340°NNW
Pressure: 30.45"   Gusts: 16mph
Location:  46.35°N, 48.05°E
Report Text: URWA 251530Z 34004G07MPS CAVOK M02/M10 Q1031 NOSIG RMKQFE775/1034 SC070
Loading
Personal Weather Stations






























Interactive Weather Map
Tropical Storm Tracking
New forecast layout! Learn more

10-Day Weather Forecast

Advertisements
Track Severe Weather on mobile